Cambridge, Idaho
Current Conditions -  °F | °C
As of 10:51 AM on Friday 21 Nov 2014 (Local Time) from KMYL Reporting Station
Overcast Overcast  
Wind Chill: 29°   Ceiling: 2100
Heat Index: 29°   Visibility: 10mi
Dew Point: 28°   Wind: 0mph
Humidity: 96%   Direction: NA
Pressure: 29.95"   Gusts: NA
Location:  44.57°N, 116.68°W
Report Text: KMYL 211751Z AUTO 00000KT 10SM BKN021 OVC029 M02/M02 A2995 RMK AO2 SNB13E25 SLP166 P0000 60000 T10171022 11017 21022 58003
Loading
Personal Weather Stations






























Interactive Weather Map New forecast layout! Learn more

10-Day Weather Forecast

Advertisements
Track Severe Weather on mobile